sensor_id;sensor_type;location;lat;lon;timestamp;P1;durP1;ratioP1;P2;durP2;ratioP2
16037;SDS011;8123;50.906;6.172;2023-07-24T00:00:27;8.83;;;6.30;;
16037;SDS011;8123;50.906;6.172;2023-07-24T00:02:53;11.97;;;6.40;;
16037;SDS011;8123;50.906;6.172;2023-07-24T00:05:20;8.50;;;6.10;;
16037;SDS011;8123;50.906;6.172;2023-07-24T00:07:46;12.17;;;6.43;;
16037;SDS011;8123;50.906;6.172;2023-07-24T00:10:11;27.37;;;6.80;;
16037;SDS011;8123;50.906;6.172;2023-07-24T00:12:37;12.80;;;6.00;;
16037;SDS011;8123;50.906;6.172;2023-07-24T00:15:03;8.83;;;6.37;;
16037;SDS011;8123;50.906;6.172;2023-07-24T00:17:29;12.47;;;6.83;;
16037;SDS011;8123;50.906;6.172;2023-07-24T00:19:55;17.37;;;6.30;;
16037;SDS011;8123;50.906;6.172;2023-07-24T00:22:20;12.70;;;6.40;;
16037;SDS011;8123;50.906;6.172;2023-07-24T00:24:46;13.87;;;6.57;;
16037;SDS011;8123;50.906;6.172;2023-07-24T00:27:11;13.73;;;5.73;;
16037;SDS011;8123;50.906;6.172;2023-07-24T00:29:38;14.40;;;6.73;;
16037;SDS011;8123;50.906;6.172;2023-07-24T00:32:04;14.60;;;6.30;;
16037;SDS011;8123;50.906;6.172;2023-07-24T00:34:30;12.40;;;6.87;;
16037;SDS011;8123;50.906;6.172;2023-07-24T00:36:56;9.43;;;6.07;;
16037;SDS011;8123;50.906;6.172;2023-07-24T00:39:21;11.80;;;6.40;;
16037;SDS011;8123;50.906;6.172;2023-07-24T00:41:47;14.80;;;6.03;;
16037;SDS011;8123;50.906;6.172;2023-07-24T00:44:12;15.10;;;6.00;;
16037;SDS011;8123;50.906;6.172;2023-07-24T00:46:38;14.13;;;7.10;;
16037;SDS011;8123;50.906;6.172;2023-07-24T00:49:04;7.43;;;5.80;;
16037;SDS011;8123;50.906;6.172;2023-07-24T00:51:30;12.70;;;6.20;;
16037;SDS011;8123;50.906;6.172;2023-07-24T00:54:00;10.40;;;6.00;;
16037;SDS011;8123;50.906;6.172;2023-07-24T00:56:27;24.37;;;6.00;;
16037;SDS011;8123;50.906;6.172;2023-07-24T00:58:54;14.70;;;6.80;;
16037;SDS011;8123;50.906;6.172;2023-07-24T01:01:20;13.33;;;7.37;;
16037;SDS011;8123;50.906;6.172;2023-07-24T01:03:47;13.03;;;6.23;;
16037;SDS011;8123;50.906;6.172;2023-07-24T01:06:14;14.13;;;7.17;;
16037;SDS011;8123;50.906;6.172;2023-07-24T01:08:39;14.93;;;6.33;;
16037;SDS011;8123;50.906;6.172;2023-07-24T01:14:08;10.93;;;6.90;;
16037;SDS011;8123;50.906;6.172;2023-07-24T01:16:38;22.10;;;7.33;;
16037;SDS011;8123;50.906;6.172;2023-07-24T01:19:16;14.10;;;5.83;;
16037;SDS011;8123;50.906;6.172;2023-07-24T01:27:52;16.43;;;6.20;;
16037;SDS011;8123;50.906;6.172;2023-07-24T01:30:18;16.83;;;6.97;;
16037;SDS011;8123;50.906;6.172;2023-07-24T01:32:44;10.30;;;6.80;;
16037;SDS011;8123;50.906;6.172;2023-07-24T01:35:10;10.40;;;6.53;;
16037;SDS011;8123;50.906;6.172;2023-07-24T01:37:36;11.90;;;6.30;;
16037;SDS011;8123;50.906;6.172;2023-07-24T01:40:05;7.27;;;5.30;;
16037;SDS011;8123;50.906;6.172;2023-07-24T01:42:33;19.23;;;6.43;;
16037;SDS011;8123;50.906;6.172;2023-07-24T01:44:59;13.47;;;6.60;;
16037;SDS011;8123;50.906;6.172;2023-07-24T01:47:25;12.60;;;5.87;;
16037;SDS011;8123;50.906;6.172;2023-07-24T01:49:50;13.33;;;6.63;;
16037;SDS011;8123;50.906;6.172;2023-07-24T01:52:17;9.07;;;5.33;;
16037;SDS011;8123;50.906;6.172;2023-07-24T01:54:43;12.33;;;5.73;;
16037;SDS011;8123;50.906;6.172;2023-07-24T01:57:08;23.23;;;6.30;;
16037;SDS011;8123;50.906;6.172;2023-07-24T01:59:34;6.30;;;5.40;;
16037;SDS011;8123;50.906;6.172;2023-07-24T02:01:59;14.77;;;5.90;;
16037;SDS011;8123;50.906;6.172;2023-07-24T02:04:25;14.90;;;7.50;;
16037;SDS011;8123;50.906;6.172;2023-07-24T02:06:50;12.60;;;6.17;;
16037;SDS011;8123;50.906;6.172;2023-07-24T02:09:17;14.90;;;6.73;;
16037;SDS011;8123;50.906;6.172;2023-07-24T02:11:44;16.50;;;6.03;;
16037;SDS011;8123;50.906;6.172;2023-07-24T02:14:11;16.63;;;6.70;;
16037;SDS011;8123;50.906;6.172;2023-07-24T02:16:37;31.97;;;8.10;;
16037;SDS011;8123;50.906;6.172;2023-07-24T02:19:03;14.30;;;7.37;;
16037;SDS011;8123;50.906;6.172;2023-07-24T02:21:28;14.20;;;7.00;;
16037;SDS011;8123;50.906;6.172;2023-07-24T02:23:54;26.97;;;6.70;;
16037;SDS011;8123;50.906;6.172;2023-07-24T02:26:20;10.73;;;7.20;;
16037;SDS011;8123;50.906;6.172;2023-07-24T02:28:45;17.67;;;6.97;;
16037;SDS011;8123;50.906;6.172;2023-07-24T02:31:11;13.37;;;7.03;;
16037;SDS011;8123;50.906;6.172;2023-07-24T02:33:37;15.30;;;7.37;;
16037;SDS011;8123;50.906;6.172;2023-07-24T02:36:02;16.20;;;7.00;;
16037;SDS011;8123;50.906;6.172;2023-07-24T02:38:28;11.60;;;7.10;;
16037;SDS011;8123;50.906;6.172;2023-07-24T02:40:54;13.50;;;6.70;;
16037;SDS011;8123;50.906;6.172;2023-07-24T02:43:19;16.70;;;7.10;;
16037;SDS011;8123;50.906;6.172;2023-07-24T02:45:45;12.53;;;6.97;;
16037;SDS011;8123;50.906;6.172;2023-07-24T02:48:11;17.70;;;8.03;;
16037;SDS011;8123;50.906;6.172;2023-07-24T02:50:36;15.83;;;7.70;;
16037;SDS011;8123;50.906;6.172;2023-07-24T02:53:02;13.73;;;7.97;;
16037;SDS011;8123;50.906;6.172;2023-07-24T02:55:27;15.97;;;7.00;;
16037;SDS011;8123;50.906;6.172;2023-07-24T02:57:53;14.03;;;7.00;;
16037;SDS011;8123;50.906;6.172;2023-07-24T03:00:19;13.20;;;7.03;;
16037;SDS011;8123;50.906;6.172;2023-07-24T03:02:44;11.33;;;6.80;;
16037;SDS011;8123;50.906;6.172;2023-07-24T03:05:10;18.40;;;8.97;;
16037;SDS011;8123;50.906;6.172;2023-07-24T03:07:36;11.17;;;6.53;;
16037;SDS011;8123;50.906;6.172;2023-07-24T03:10:02;15.03;;;7.20;;
16037;SDS011;8123;50.906;6.172;2023-07-24T03:12:28;17.00;;;7.77;;
16037;SDS011;8123;50.906;6.172;2023-07-24T03:14:54;14.30;;;6.60;;
16037;SDS011;8123;50.906;6.172;2023-07-24T03:17:19;15.53;;;7.30;;
16037;SDS011;8123;50.906;6.172;2023-07-24T03:19:45;19.57;;;8.10;;
16037;SDS011;8123;50.906;6.172;2023-07-24T03:22:12;12.03;;;6.80;;
16037;SDS011;8123;50.906;6.172;2023-07-24T03:24:38;14.53;;;7.30;;
16037;SDS011;8123;50.906;6.172;2023-07-24T03:27:04;13.63;;;7.63;;
16037;SDS011;8123;50.906;6.172;2023-07-24T03:29:29;16.03;;;7.73;;
16037;SDS011;8123;50.906;6.172;2023-07-24T03:31:55;10.50;;;6.50;;
16037;SDS011;8123;50.906;6.172;2023-07-24T03:34:21;12.27;;;6.80;;
16037;SDS011;8123;50.906;6.172;2023-07-24T03:36:46;10.17;;;6.67;;
16037;SDS011;8123;50.906;6.172;2023-07-24T03:39:12;21.33;;;8.47;;
16037;SDS011;8123;50.906;6.172;2023-07-24T03:41:38;10.60;;;7.53;;
16037;SDS011;8123;50.906;6.172;2023-07-24T03:44:04;14.83;;;6.53;;
16037;SDS011;8123;50.906;6.172;2023-07-24T03:46:31;13.90;;;7.57;;
16037;SDS011;8123;50.906;6.172;2023-07-24T03:48:57;13.93;;;7.03;;
16037;SDS011;8123;50.906;6.172;2023-07-24T03:51:22;18.80;;;6.97;;
16037;SDS011;8123;50.906;6.172;2023-07-24T03:53:48;11.53;;;6.37;;
16037;SDS011;8123;50.906;6.172;2023-07-24T03:56:14;20.33;;;6.90;;
16037;SDS011;8123;50.906;6.172;2023-07-24T03:58:39;16.07;;;7.60;;
16037;SDS011;8123;50.906;6.172;2023-07-24T04:01:05;16.73;;;7.33;;
16037;SDS011;8123;50.906;6.172;2023-07-24T04:03:31;15.60;;;7.20;;
16037;SDS011;8123;50.906;6.172;2023-07-24T04:05:57;15.03;;;8.10;;
16037;SDS011;8123;50.906;6.172;2023-07-24T04:08:22;14.90;;;6.97;;
16037;SDS011;8123;50.906;6.172;2023-07-24T04:10:48;10.70;;;7.50;;
16037;SDS011;8123;50.906;6.172;2023-07-24T04:13:14;13.07;;;7.63;;
16037;SDS011;8123;50.906;6.172;2023-07-24T04:15:39;10.63;;;7.10;;
16037;SDS011;8123;50.906;6.172;2023-07-24T04:18:05;13.37;;;7.30;;
16037;SDS011;8123;50.906;6.172;2023-07-24T04:20:30;13.57;;;8.00;;
16037;SDS011;8123;50.906;6.172;2023-07-24T04:22:56;9.77;;;6.60;;
16037;SDS011;8123;50.906;6.172;2023-07-24T04:25:22;10.73;;;7.03;;
16037;SDS011;8123;50.906;6.172;2023-07-24T04:27:47;13.20;;;7.70;;
16037;SDS011;8123;50.906;6.172;2023-07-24T04:30:13;10.57;;;7.03;;
16037;SDS011;8123;50.906;6.172;2023-07-24T04:32:39;8.47;;;6.67;;
16037;SDS011;8123;50.906;6.172;2023-07-24T04:35:04;13.43;;;8.03;;
16037;SDS011;8123;50.906;6.172;2023-07-24T04:37:31;10.80;;;7.30;;
16037;SDS011;8123;50.906;6.172;2023-07-24T04:39:56;16.17;;;7.33;;
16037;SDS011;8123;50.906;6.172;2023-07-24T04:42:22;10.80;;;6.53;;
16037;SDS011;8123;50.906;6.172;2023-07-24T04:44:47;14.57;;;7.93;;
16037;SDS011;8123;50.906;6.172;2023-07-24T04:47:15;12.73;;;7.10;;
16037;SDS011;8123;50.906;6.172;2023-07-24T04:49:40;17.00;;;6.43;;
16037;SDS011;8123;50.906;6.172;2023-07-24T04:52:06;10.07;;;7.07;;
16037;SDS011;8123;50.906;6.172;2023-07-24T04:54:32;14.50;;;6.90;;
16037;SDS011;8123;50.906;6.172;2023-07-24T04:56:58;11.20;;;6.70;;
16037;SDS011;8123;50.906;6.172;2023-07-24T04:59:24;12.67;;;6.83;;
16037;SDS011;8123;50.906;6.172;2023-07-24T05:01:49;13.43;;;6.60;;
16037;SDS011;8123;50.906;6.172;2023-07-24T05:04:15;13.47;;;6.50;;
16037;SDS011;8123;50.906;6.172;2023-07-24T05:06:41;10.10;;;6.00;;
16037;SDS011;8123;50.906;6.172;2023-07-24T05:09:07;14.33;;;7.00;;
16037;SDS011;8123;50.906;6.172;2023-07-24T05:11:32;9.70;;;6.07;;
16037;SDS011;8123;50.906;6.172;2023-07-24T05:13:58;8.90;;;6.70;;
16037;SDS011;8123;50.906;6.172;2023-07-24T05:16:24;12.83;;;6.60;;
16037;SDS011;8123;50.906;6.172;2023-07-24T05:18:49;11.93;;;6.43;;
16037;SDS011;8123;50.906;6.172;2023-07-24T05:21:15;14.27;;;7.20;;
16037;SDS011;8123;50.906;6.172;2023-07-24T05:23:40;19.60;;;6.10;;
16037;SDS011;8123;50.906;6.172;2023-07-24T05:26:06;7.53;;;5.90;;
16037;SDS011;8123;50.906;6.172;2023-07-24T05:28:32;10.10;;;6.30;;
16037;SDS011;8123;50.906;6.172;2023-07-24T05:31:01;9.63;;;5.33;;
16037;SDS011;8123;50.906;6.172;2023-07-24T05:33:28;9.83;;;5.57;;
16037;SDS011;8123;50.906;6.172;2023-07-24T05:35:58;6.10;;;4.93;;
16037;SDS011;8123;50.906;6.172;2023-07-24T05:38:24;6.00;;;4.73;;
16037;SDS011;8123;50.906;6.172;2023-07-24T05:40:57;17.80;;;4.93;;
16037;SDS011;8123;50.906;6.172;2023-07-24T05:43:24;5.93;;;4.37;;
16037;SDS011;8123;50.906;6.172;2023-07-24T05:45:51;9.10;;;5.00;;
16037;SDS011;8123;50.906;6.172;2023-07-24T05:48:17;5.63;;;4.57;;
16037;SDS011;8123;50.906;6.172;2023-07-24T05:50:43;9.43;;;5.20;;
16037;SDS011;8123;50.906;6.172;2023-07-24T05:53:09;7.43;;;5.13;;
16037;SDS011;8123;50.906;6.172;2023-07-24T05:55:34;20.97;;;13.13;;
16037;SDS011;8123;50.906;6.172;2023-07-24T05:58:00;10.03;;;5.20;;
16037;SDS011;8123;50.906;6.172;2023-07-24T06:00:26;8.00;;;5.53;;
16037;SDS011;8123;50.906;6.172;2023-07-24T06:02:52;8.10;;;5.77;;
16037;SDS011;8123;50.906;6.172;2023-07-24T06:05:18;9.13;;;4.80;;
16037;SDS011;8123;50.906;6.172;2023-07-24T06:07:44;7.00;;;4.57;;
16037;SDS011;8123;50.906;6.172;2023-07-24T06:10:10;6.83;;;4.87;;
16037;SDS011;8123;50.906;6.172;2023-07-24T06:12:36;11.70;;;5.67;;
16037;SDS011;8123;50.906;6.172;2023-07-24T06:15:02;11.87;;;4.90;;
16037;SDS011;8123;50.906;6.172;2023-07-24T06:17:28;6.43;;;4.93;;
16037;SDS011;8123;50.906;6.172;2023-07-24T06:19:54;9.13;;;5.40;;
16037;SDS011;8123;50.906;6.172;2023-07-24T06:22:19;4.80;;;4.03;;
16037;SDS011;8123;50.906;6.172;2023-07-24T06:24:45;7.47;;;5.27;;
16037;SDS011;8123;50.906;6.172;2023-07-24T06:27:10;7.73;;;4.50;;
16037;SDS011;8123;50.906;6.172;2023-07-24T06:29:36;5.90;;;4.30;;
16037;SDS011;8123;50.906;6.172;2023-07-24T06:32:02;8.20;;;4.47;;
16037;SDS011;8123;50.906;6.172;2023-07-24T06:34:28;10.30;;;4.50;;
16037;SDS011;8123;50.906;6.172;2023-07-24T06:36:53;7.50;;;4.70;;
16037;SDS011;8123;50.906;6.172;2023-07-24T06:39:19;6.60;;;5.23;;
16037;SDS011;8123;50.906;6.172;2023-07-24T06:41:45;7.17;;;5.37;;
16037;SDS011;8123;50.906;6.172;2023-07-24T06:44:11;8.53;;;4.87;;
16037;SDS011;8123;50.906;6.172;2023-07-24T06:46:36;6.17;;;4.30;;
16037;SDS011;8123;50.906;6.172;2023-07-24T06:49:02;9.83;;;5.90;;
16037;SDS011;8123;50.906;6.172;2023-07-24T06:51:28;6.23;;;4.90;;
16037;SDS011;8123;50.906;6.172;2023-07-24T06:53:54;11.53;;;5.20;;
16037;SDS011;8123;50.906;6.172;2023-07-24T06:56:19;6.53;;;4.60;;
16037;SDS011;8123;50.906;6.172;2023-07-24T06:58:45;5.60;;;4.40;;
16037;SDS011;8123;50.906;6.172;2023-07-24T07:01:10;8.40;;;5.30;;
16037;SDS011;8123;50.906;6.172;2023-07-24T07:03:36;6.30;;;4.40;;
16037;SDS011;8123;50.906;6.172;2023-07-24T07:06:02;8.47;;;4.60;;
16037;SDS011;8123;50.906;6.172;2023-07-24T07:08:28;48.90;;;7.10;;
16037;SDS011;8123;50.906;6.172;2023-07-24T07:10:57;7.37;;;5.10;;
16037;SDS011;8123;50.906;6.172;2023-07-24T07:13:24;7.30;;;4.40;;
16037;SDS011;8123;50.906;6.172;2023-07-24T07:15:50;6.40;;;4.60;;
16037;SDS011;8123;50.906;6.172;2023-07-24T07:18:15;7.87;;;4.67;;
16037;SDS011;8123;50.906;6.172;2023-07-24T07:20:44;6.70;;;4.40;;
16037;SDS011;8123;50.906;6.172;2023-07-24T07:23:14;11.50;;;5.83;;
16037;SDS011;8123;50.906;6.172;2023-07-24T07:25:40;5.57;;;4.67;;
16037;SDS011;8123;50.906;6.172;2023-07-24T07:28:05;11.57;;;5.50;;
16037;SDS011;8123;50.906;6.172;2023-07-24T07:30:31;8.47;;;5.17;;
16037;SDS011;8123;50.906;6.172;2023-07-24T07:32:57;10.40;;;4.77;;
16037;SDS011;8123;50.906;6.172;2023-07-24T07:35:22;8.63;;;4.97;;
16037;SDS011;8123;50.906;6.172;2023-07-24T07:37:48;8.17;;;5.10;;
16037;SDS011;8123;50.906;6.172;2023-07-24T07:40:14;7.57;;;5.30;;
16037;SDS011;8123;50.906;6.172;2023-07-24T07:42:39;9.43;;;5.17;;
16037;SDS011;8123;50.906;6.172;2023-07-24T07:45:05;11.80;;;5.40;;
16037;SDS011;8123;50.906;6.172;2023-07-24T07:47:31;6.70;;;5.07;;
16037;SDS011;8123;50.906;6.172;2023-07-24T07:49:57;10.07;;;5.70;;
16037;SDS011;8123;50.906;6.172;2023-07-24T07:52:22;8.63;;;5.80;;
16037;SDS011;8123;50.906;6.172;2023-07-24T07:54:48;9.80;;;6.53;;
16037;SDS011;8123;50.906;6.172;2023-07-24T07:57:14;8.10;;;5.90;;
16037;SDS011;8123;50.906;6.172;2023-07-24T07:59:40;10.90;;;5.80;;
16037;SDS011;8123;50.906;6.172;2023-07-24T08:02:06;10.30;;;5.73;;
16037;SDS011;8123;50.906;6.172;2023-07-24T08:04:32;11.47;;;5.47;;
16037;SDS011;8123;50.906;6.172;2023-07-24T08:06:58;10.03;;;5.83;;
16037;SDS011;8123;50.906;6.172;2023-07-24T08:09:23;8.07;;;5.37;;
16037;SDS011;8123;50.906;6.172;2023-07-24T08:11:49;6.77;;;5.20;;
16037;SDS011;8123;50.906;6.172;2023-07-24T08:14:18;11.50;;;5.93;;
16037;SDS011;8123;50.906;6.172;2023-07-24T08:16:44;10.50;;;5.23;;
16037;SDS011;8123;50.906;6.172;2023-07-24T08:19:12;7.53;;;5.13;;
16037;SDS011;8123;50.906;6.172;2023-07-24T08:21:38;5.97;;;4.10;;
16037;SDS011;8123;50.906;6.172;2023-07-24T08:24:04;8.30;;;4.87;;
16037;SDS011;8123;50.906;6.172;2023-07-24T08:26:30;9.10;;;4.63;;
16037;SDS011;8123;50.906;6.172;2023-07-24T08:28:55;6.07;;;4.40;;
16037;SDS011;8123;50.906;6.172;2023-07-24T08:31:21;10.67;;;4.60;;
16037;SDS011;8123;50.906;6.172;2023-07-24T08:33:46;6.63;;;3.97;;
16037;SDS011;8123;50.906;6.172;2023-07-24T08:36:12;7.87;;;4.40;;
16037;SDS011;8123;50.906;6.172;2023-07-24T08:38:38;8.87;;;4.70;;
16037;SDS011;8123;50.906;6.172;2023-07-24T08:41:07;6.30;;;3.33;;
16037;SDS011;8123;50.906;6.172;2023-07-24T08:43:35;5.80;;;3.90;;
16037;SDS011;8123;50.906;6.172;2023-07-24T08:46:02;5.73;;;3.27;;
16037;SDS011;8123;50.906;6.172;2023-07-24T08:48:30;6.40;;;3.70;;
16037;SDS011;8123;50.906;6.172;2023-07-24T08:50:59;5.73;;;3.90;;
16037;SDS011;8123;50.906;6.172;2023-07-24T08:53:25;4.10;;;3.73;;
16037;SDS011;8123;50.906;6.172;2023-07-24T08:55:51;5.47;;;4.10;;
16037;SDS011;8123;50.906;6.172;2023-07-24T08:58:19;3.60;;;3.30;;
16037;SDS011;8123;50.906;6.172;2023-07-24T09:00:45;3.30;;;2.90;;
16037;SDS011;8123;50.906;6.172;2023-07-24T09:03:11;6.10;;;3.63;;
16037;SDS011;8123;50.906;6.172;2023-07-24T09:05:36;4.97;;;3.27;;
16037;SDS011;8123;50.906;6.172;2023-07-24T09:08:02;3.30;;;3.00;;
16037;SDS011;8123;50.906;6.172;2023-07-24T09:10:28;3.67;;;3.37;;
16037;SDS011;8123;50.906;6.172;2023-07-24T09:12:54;4.90;;;3.50;;
16037;SDS011;8123;50.906;6.172;2023-07-24T09:15:20;6.10;;;3.40;;
16037;SDS011;8123;50.906;6.172;2023-07-24T09:17:52;4.70;;;3.20;;
16037;SDS011;8123;50.906;6.172;2023-07-24T09:20:18;5.07;;;3.93;;
16037;SDS011;8123;50.906;6.172;2023-07-24T09:22:49;5.83;;;4.03;;
16037;SDS011;8123;50.906;6.172;2023-07-24T09:25:15;4.53;;;3.93;;
16037;SDS011;8123;50.906;6.172;2023-07-24T09:27:41;8.57;;;4.27;;
16037;SDS011;8123;50.906;6.172;2023-07-24T09:30:13;3.70;;;3.23;;
16037;SDS011;8123;50.906;6.172;2023-07-24T09:32:40;4.10;;;3.70;;
16037;SDS011;8123;50.906;6.172;2023-07-24T09:35:18;5.60;;;4.20;;
16037;SDS011;8123;50.906;6.172;2023-07-24T09:37:45;4.43;;;3.43;;
16037;SDS011;8123;50.906;6.172;2023-07-24T09:40:11;15.40;;;3.43;;
16037;SDS011;8123;50.906;6.172;2023-07-24T09:42:39;3.77;;;3.20;;
16037;SDS011;8123;50.906;6.172;2023-07-24T09:45:07;5.73;;;3.60;;
16037;SDS011;8123;50.906;6.172;2023-07-24T09:47:34;3.70;;;3.23;;
16037;SDS011;8123;50.906;6.172;2023-07-24T09:50:02;4.43;;;4.03;;
16037;SDS011;8123;50.906;6.172;2023-07-24T09:52:29;5.37;;;4.37;;
16037;SDS011;8123;50.906;6.172;2023-07-24T09:54:59;9.80;;;4.33;;
16037;SDS011;8123;50.906;6.172;2023-07-24T09:57:30;7.53;;;4.60;;
16037;SDS011;8123;50.906;6.172;2023-07-24T09:59:57;5.03;;;3.90;;
16037;SDS011;8123;50.906;6.172;2023-07-24T10:02:23;4.50;;;3.80;;
16037;SDS011;8123;50.906;6.172;2023-07-24T10:04:49;6.50;;;4.83;;
16037;SDS011;8123;50.906;6.172;2023-07-24T10:07:16;5.67;;;4.73;;
16037;SDS011;8123;50.906;6.172;2023-07-24T10:09:43;12.20;;;4.60;;
16037;SDS011;8123;50.906;6.172;2023-07-24T10:12:09;5.80;;;4.17;;
16037;SDS011;8123;50.906;6.172;2023-07-24T10:14:35;7.30;;;4.40;;
16037;SDS011;8123;50.906;6.172;2023-07-24T10:17:02;9.13;;;4.50;;
16037;SDS011;8123;50.906;6.172;2023-07-24T10:19:35;4.93;;;4.40;;
16037;SDS011;8123;50.906;6.172;2023-07-24T10:22:04;5.70;;;4.43;;
16037;SDS011;8123;50.906;6.172;2023-07-24T10:24:30;5.93;;;4.17;;
16037;SDS011;8123;50.906;6.172;2023-07-24T10:26:57;6.67;;;4.90;;
16037;SDS011;8123;50.906;6.172;2023-07-24T10:29:24;5.20;;;4.00;;
16037;SDS011;8123;50.906;6.172;2023-07-24T10:31:54;4.97;;;4.57;;
16037;SDS011;8123;50.906;6.172;2023-07-24T10:34:20;7.17;;;4.53;;
16037;SDS011;8123;50.906;6.172;2023-07-24T10:36:46;5.97;;;4.23;;
16037;SDS011;8123;50.906;6.172;2023-07-24T10:39:15;5.03;;;4.53;;
16037;SDS011;8123;50.906;6.172;2023-07-24T10:41:43;14.20;;;4.83;;
16037;SDS011;8123;50.906;6.172;2023-07-24T10:44:10;6.13;;;4.57;;
16037;SDS011;8123;50.906;6.172;2023-07-24T10:46:40;6.97;;;4.60;;
16037;SDS011;8123;50.906;6.172;2023-07-24T10:49:07;18.30;;;7.63;;
16037;SDS011;8123;50.906;6.172;2023-07-24T10:51:33;9.13;;;5.23;;
16037;SDS011;8123;50.906;6.172;2023-07-24T10:54:02;18.87;;;7.30;;
16037;SDS011;8123;50.906;6.172;2023-07-24T10:56:29;8.90;;;6.03;;
16037;SDS011;8123;50.906;6.172;2023-07-24T10:58:55;26.33;;;8.03;;
16037;SDS011;8123;50.906;6.172;2023-07-24T11:01:21;13.20;;;6.80;;
16037;SDS011;8123;50.906;6.172;2023-07-24T11:03:48;13.50;;;6.57;;
16037;SDS011;8123;50.906;6.172;2023-07-24T11:06:15;12.57;;;5.40;;
16037;SDS011;8123;50.906;6.172;2023-07-24T11:08:50;6.67;;;5.10;;
16037;SDS011;8123;50.906;6.172;2023-07-24T11:11:17;8.53;;;4.50;;
16037;SDS011;8123;50.906;6.172;2023-07-24T11:13:43;11.50;;;4.37;;
16037;SDS011;8123;50.906;6.172;2023-07-24T11:16:08;8.97;;;5.80;;
16037;SDS011;8123;50.906;6.172;2023-07-24T11:18:44;4.63;;;4.10;;
16037;SDS011;8123;50.906;6.172;2023-07-24T11:21:13;6.43;;;5.40;;
16037;SDS011;8123;50.906;6.172;2023-07-24T11:23:50;8.27;;;6.23;;
16037;SDS011;8123;50.906;6.172;2023-07-24T11:26:21;9.10;;;5.67;;
16037;SDS011;8123;50.906;6.172;2023-07-24T11:28:48;7.20;;;6.03;;
16037;SDS011;8123;50.906;6.172;2023-07-24T11:31:15;9.67;;;6.20;;
16037;SDS011;8123;50.906;6.172;2023-07-24T11:33:40;23.50;;;8.80;;
16037;SDS011;8123;50.906;6.172;2023-07-24T11:36:08;27.47;;;7.87;;
16037;SDS011;8123;50.906;6.172;2023-07-24T11:38:35;3.83;;;2.83;;
16037;SDS011;8123;50.906;6.172;2023-07-24T11:41:03;3.73;;;2.60;;
16037;SDS011;8123;50.906;6.172;2023-07-24T11:43:28;2.23;;;2.03;;
16037;SDS011;8123;50.906;6.172;2023-07-24T11:45:54;1.83;;;1.73;;
16037;SDS011;8123;50.906;6.172;2023-07-24T11:48:21;3.57;;;1.80;;
16037;SDS011;8123;50.906;6.172;2023-07-24T11:50:48;1.90;;;1.70;;
16037;SDS011;8123;50.906;6.172;2023-07-24T11:53:25;4.67;;;2.00;;
16037;SDS011;8123;50.906;6.172;2023-07-24T11:55:52;1.63;;;1.53;;
16037;SDS011;8123;50.906;6.172;2023-07-24T11:58:18;2.77;;;1.90;;
16037;SDS011;8123;50.906;6.172;2023-07-24T12:00:46;4.03;;;1.50;;
16037;SDS011;8123;50.906;6.172;2023-07-24T12:03:12;2.60;;;1.60;;
16037;SDS011;8123;50.906;6.172;2023-07-24T12:05:40;3.17;;;1.80;;
16037;SDS011;8123;50.906;6.172;2023-07-24T12:08:07;1.57;;;1.50;;
16037;SDS011;8123;50.906;6.172;2023-07-24T12:10:35;3.30;;;1.73;;
16037;SDS011;8123;50.906;6.172;2023-07-24T12:13:02;5.27;;;1.90;;
16037;SDS011;8123;50.906;6.172;2023-07-24T12:15:28;4.20;;;1.60;;
16037;SDS011;8123;50.906;6.172;2023-07-24T12:17:54;1.57;;;1.47;;
16037;SDS011;8123;50.906;6.172;2023-07-24T12:20:19;2.20;;;2.03;;
16037;SDS011;8123;50.906;6.172;2023-07-24T12:22:45;3.77;;;2.27;;
16037;SDS011;8123;50.906;6.172;2023-07-24T12:25:12;3.07;;;2.77;;
16037;SDS011;8123;50.906;6.172;2023-07-24T12:27:38;2.17;;;2.00;;
16037;SDS011;8123;50.906;6.172;2023-07-24T12:30:05;6.40;;;2.17;;
16037;SDS011;8123;50.906;6.172;2023-07-24T12:32:31;2.63;;;2.43;;
16037;SDS011;8123;50.906;6.172;2023-07-24T12:34:57;2.60;;;2.40;;
16037;SDS011;8123;50.906;6.172;2023-07-24T12:37:22;2.60;;;2.40;;
16037;SDS011;8123;50.906;6.172;2023-07-24T12:39:48;3.53;;;2.40;;
16037;SDS011;8123;50.906;6.172;2023-07-24T12:42:14;2.50;;;2.40;;
16037;SDS011;8123;50.906;6.172;2023-07-24T12:44:40;3.13;;;2.63;;
16037;SDS011;8123;50.906;6.172;2023-07-24T12:47:06;2.40;;;2.23;;
16037;SDS011;8123;50.906;6.172;2023-07-24T12:49:32;3.57;;;2.30;;
16037;SDS011;8123;50.906;6.172;2023-07-24T12:51:58;2.50;;;2.30;;
16037;SDS011;8123;50.906;6.172;2023-07-24T12:54:23;2.27;;;2.07;;
16037;SDS011;8123;50.906;6.172;2023-07-24T12:56:49;2.20;;;2.10;;
16037;SDS011;8123;50.906;6.172;2023-07-24T12:59:15;2.83;;;2.13;;
16037;SDS011;8123;50.906;6.172;2023-07-24T13:01:42;2.50;;;2.30;;
16037;SDS011;8123;50.906;6.172;2023-07-24T13:04:08;3.03;;;2.03;;
16037;SDS011;8123;50.906;6.172;2023-07-24T13:06:34;2.70;;;2.50;;
16037;SDS011;8123;50.906;6.172;2023-07-24T13:08:59;5.30;;;2.10;;
16037;SDS011;8123;50.906;6.172;2023-07-24T13:11:25;2.53;;;2.33;;
16037;SDS011;8123;50.906;6.172;2023-07-24T13:13:53;3.37;;;2.70;;
16037;SDS011;8123;50.906;6.172;2023-07-24T13:16:19;2.30;;;2.20;;
16037;SDS011;8123;50.906;6.172;2023-07-24T13:18:44;1.90;;;1.77;;
16037;SDS011;8123;50.906;6.172;2023-07-24T13:21:10;3.10;;;2.53;;
16037;SDS011;8123;50.906;6.172;2023-07-24T13:23:36;2.33;;;2.13;;
16037;SDS011;8123;50.906;6.172;2023-07-24T13:26:02;2.80;;;2.60;;
16037;SDS011;8123;50.906;6.172;2023-07-24T13:28:27;2.60;;;2.20;;
16037;SDS011;8123;50.906;6.172;2023-07-24T13:30:53;2.33;;;2.17;;
16037;SDS011;8123;50.906;6.172;2023-07-24T13:33:19;4.07;;;2.30;;
16037;SDS011;8123;50.906;6.172;2023-07-24T13:35:46;2.80;;;2.53;;
16037;SDS011;8123;50.906;6.172;2023-07-24T13:38:12;2.87;;;2.67;;
16037;SDS011;8123;50.906;6.172;2023-07-24T13:40:39;2.53;;;2.30;;
16037;SDS011;8123;50.906;6.172;2023-07-24T13:43:05;2.70;;;2.50;;
16037;SDS011;8123;50.906;6.172;2023-07-24T13:45:30;3.37;;;3.07;;
16037;SDS011;8123;50.906;6.172;2023-07-24T13:47:56;3.83;;;2.77;;
16037;SDS011;8123;50.906;6.172;2023-07-24T13:50:23;3.60;;;3.30;;
16037;SDS011;8123;50.906;6.172;2023-07-24T13:52:49;3.47;;;2.90;;
16037;SDS011;8123;50.906;6.172;2023-07-24T13:55:14;5.80;;;4.97;;
16037;SDS011;8123;50.906;6.172;2023-07-24T13:57:40;3.80;;;3.50;;
16037;SDS011;8123;50.906;6.172;2023-07-24T14:00:06;5.40;;;3.10;;
16037;SDS011;8123;50.906;6.172;2023-07-24T14:02:32;2.87;;;2.67;;
16037;SDS011;8123;50.906;6.172;2023-07-24T14:04:58;3.00;;;2.80;;
16037;SDS011;8123;50.906;6.172;2023-07-24T14:07:24;5.00;;;3.47;;
16037;SDS011;8123;50.906;6.172;2023-07-24T14:09:49;2.70;;;2.50;;
16037;SDS011;8123;50.906;6.172;2023-07-24T14:12:15;3.57;;;3.23;;
16037;SDS011;8123;50.906;6.172;2023-07-24T14:14:41;3.83;;;2.70;;
16037;SDS011;8123;50.906;6.172;2023-07-24T14:17:06;3.47;;;2.60;;
16037;SDS011;8123;50.906;6.172;2023-07-24T14:19:32;3.93;;;3.30;;
16037;SDS011;8123;50.906;6.172;2023-07-24T14:21:58;3.37;;;3.00;;
16037;SDS011;8123;50.906;6.172;2023-07-24T14:24:23;2.97;;;2.77;;
16037;SDS011;8123;50.906;6.172;2023-07-24T14:26:49;4.50;;;2.83;;
16037;SDS011;8123;50.906;6.172;2023-07-24T14:29:14;2.93;;;2.70;;
16037;SDS011;8123;50.906;6.172;2023-07-24T14:31:42;4.80;;;2.90;;
16037;SDS011;8123;50.906;6.172;2023-07-24T14:34:08;3.07;;;2.77;;
16037;SDS011;8123;50.906;6.172;2023-07-24T14:36:37;3.40;;;3.07;;
16037;SDS011;8123;50.906;6.172;2023-07-24T14:39:03;2.13;;;1.83;;
16037;SDS011;8123;50.906;6.172;2023-07-24T14:41:29;2.50;;;2.30;;
16037;SDS011;8123;50.906;6.172;2023-07-24T14:43:54;2.70;;;2.50;;
16037;SDS011;8123;50.906;6.172;2023-07-24T14:46:20;2.70;;;2.00;;
16037;SDS011;8123;50.906;6.172;2023-07-24T14:48:46;1.93;;;1.83;;
16037;SDS011;8123;50.906;6.172;2023-07-24T14:51:12;5.10;;;1.93;;
16037;SDS011;8123;50.906;6.172;2023-07-24T14:53:37;2.00;;;1.90;;
16037;SDS011;8123;50.906;6.172;2023-07-24T14:56:03;2.00;;;1.90;;
16037;SDS011;8123;50.906;6.172;2023-07-24T14:58:29;2.03;;;1.90;;